| time (UTC) | temp F | wind direction | speed knots | gust knots | rain 1hr in | rain 24hr in | rain mn in | humidity % | barometer mb |
| 20260507170011 | 46 | 337 | 7.8 | 9.6 | 0.00 | 0.00 | 0.00 | 92 | |
| 20260507165510 | 46 | 341 | 6.1 | 7.8 | 0.00 | 0.00 | 0.00 | 92 | |
| 20260507165011 | 46 | 333 | 6.1 | 7.8 | 0.00 | 0.00 | 0.00 | 92 | |
| 20260507164510 | 46 | 338 | 9.6 | 9.6 | 0.00 | 0.00 | 0.00 | 92 | |
| 20260507164011 | 46 | 338 | 7.8 | 9.6 | 0.00 | 0.00 | 0.00 | 92 | |
| 20260507163510 | 46 | 340 | 7.8 | 9.6 | 0.00 | 0.00 | 0.00 | 92 | |
| 20260507163011 | 46 | 342 | 9.6 | 9.6 | 0.00 | 0.00 | 0.00 | 92 | |
| 20260507162511 | 46 | 342 | 7.8 | 9.6 | 0.00 | 0.00 | 0.00 | 92 | |
| 20260507162010 | 46 | 353 | 7.8 | 9.6 | 0.00 | 0.00 | 0.00 | 92 | |
| 20260507161511 | 46 | 7 | 7.8 | 9.6 | 0.00 | 0.00 | 0.00 | 92 | |
| 20260507161011 | 46 | 6 | 7.8 | 9.6 | 0.00 | 0.00 | 0.00 | 92 | |
| 20260507160511 | 46 | 359 | 9.6 | 11.3 | 0.00 | 0.00 | 0.00 | 92 | |
| 20260507160011 | 46 | 348 | 11.3 | 13.9 | 0.00 | 0.00 | 0.00 | 92 | |
| 20260507155517 | 46 | 10 | 11.3 | 13.9 | 0.00 | 0.00 | 0.00 | 92 | |
| 20260507155010 | 46 | 3 | 15.6 | 15.6 | 0.00 | 0.00 | 0.00 | 92 | |
| 20260507154511 | 46 | 2 | 15.6 | 17.4 | 0.00 | 0.00 | 0.00 | 91 | |
| 20260507154017 | 48 | 345 | 11.3 | 11.3 | 0.00 | 0.00 | 0.00 | 91 | |
| 20260507153511 | 48 | 341 | 9.6 | 11.3 | 0.00 | 0.00 | 0.00 | 91 | |
| 20260507153015 | 48 | 327 | 7.8 | 9.6 | 0.00 | 0.00 | 0.00 | 91 | |
| 20260507152511 | 48 | 290 | 11.3 | 13.9 | 0.00 | 0.00 | 0.00 | 91 | |
| 20260507152019 | 48 | 262 | 9.6 | 11.3 | 0.00 | 0.00 | 0.00 | 90 | |
| 20260507151511 | 48 | 264 | 7.8 | 9.6 | 0.00 | 0.00 | 0.00 | 89 | |
| 20260507151010 | 48 | 240 | 6.1 | 6.1 | 0.00 | 0.00 | 0.00 | 89 | |
| 20260507150511 | 48 | 229 | 6.1 | 6.1 | 0.00 | 0.00 | 0.00 | 89 | |
| 20260507150010 | 48 | 205 | 3.5 | 3.5 | 0.00 | 0.00 | 0.00 | 89 | |
| 20260507145510 | 48 | 205 | 3.5 | 3.5 | 0.00 | 0.00 | 0.00 | 88 | |
| 20260507145017 | 48 | 205 | 1.7 | 3.5 | 0.00 | 0.00 | 0.00 | 88 | |
| 20260507144511 | 48 | 238 | 1.7 | 1.7 | 0.00 | 0.00 | 0.00 | 88 | |
| 20260507144011 | 48 | 230 | 3.5 | 6.1 | 0.00 | 0.00 | 0.00 | 88 | |
| 20260507143511 | 48 | 278 | 1.7 | 1.7 | 0.00 | 0.00 | 0.00 | 88 | |
| 20260507143010 | 48 | 273 | 1.7 | 3.5 | 0.00 | 0.00 | 0.00 | 88 | |
| 20260507142511 | 48 | 291 | 3.5 | 3.5 | 0.00 | 0.00 | 0.00 | 88 | |
| 20260507142014 | 48 | 236 | 7.8 | 9.6 | 0.00 | 0.00 | 0.00 | 88 | |
| 20260507141511 | 48 | 208 | 11.3 | 11.3 | 0.00 | 0.00 | 0.00 | 87 | |
| 20260507141011 | 48 | 209 | 11.3 | 13.9 | 0.00 | 0.00 | 0.00 | 87 | |
| 20260507140510 | 48 | 207 | 13.9 | 15.6 | 0.00 | 0.00 | 0.00 | 86 | |
| 20260507140010 | 48 | 202 | 11.3 | 13.9 | 0.00 | 0.00 | 0.00 | 86 | |
| 20260507135511 | 48 | 199 | 11.3 | 11.3 | 0.00 | 0.00 | 0.00 | 86 | |
| 20260507135010 | 48 | 230 | 11.3 | 13.9 | 0.00 | 0.00 | 0.00 | 85 | |
| 20260507134511 | 48 | 198 | 11.3 | 15.6 | 0.00 | 0.00 | 0.00 | 84 | |
| 20260507134010 | 50 | 218 | 3.5 | 7.8 | 0.00 | 0.00 | 0.00 | 84 | |
| 20260507133510 | 48 | 184 | 9.6 | 11.3 | 0.00 | 0.00 | 0.00 | 84 | |
| 20260507133011 | 50 | 230 | 11.3 | 13.9 | 0.00 | 0.00 | 0.00 | 83 | |
| 20260507132510 | 50 | 213 | 9.6 | 13.9 | 0.00 | 0.00 | 0.00 | 83 | |
| 20260507132010 | 52 | 243 | 6.1 | 7.8 | 0.00 | 0.00 | 0.00 | 82 | |
| 20260507131511 | 52 | 277 | 6.1 | 7.8 | 0.00 | 0.00 | 0.00 | 82 | |
| 20260507131011 | 52 | 284 | 7.8 | 7.8 | 0.00 | 0.00 | 0.00 | 82 | |
| 20260507130509 | 52 | 286 | 9.6 | 9.6 | 0.00 | 0.00 | 0.00 | 83 | |
| 20260507130011 | 50 | 282 | 11.3 | 13.9 | 0.00 | 0.00 | 0.00 | 82 | |
| 20260507125510 | 50 | 271 | 13.9 | 15.6 | 0.00 | 0.00 | 0.00 | 81 | |
| 20260507125011 | 52 | 253 | 15.6 | 17.4 | 0.00 | 0.00 | 0.00 | 80 | |
| 20260507124510 | 52 | 249 | 13.9 | 15.6 | 0.00 | 0.00 | 0.00 | 79 | |
| 20260507124010 | 52 | 237 | 15.6 | 17.4 | 0.00 | 0.00 | 0.00 | 79 | |
| 20260507123510 | 52 | 211 | 15.6 | 15.6 | 0.00 | 0.00 | 0.00 | 79 | |
| 20260507123011 | 52 | 216 | 17.4 | 19.1 | 0.00 | 0.00 | 0.00 | 78 | |
| 20260507122510 | 54 | 215 | 17.4 | 19.1 | 0.00 | 0.00 | 0.00 | 75 | |
| 20260507122012 | 54 | 213 | 15.6 | 17.4 | 0.00 | 0.00 | 0.00 | 75 | |
| 20260507121511 | 54 | 212 | 13.9 | 15.6 | 0.00 | 0.00 | 0.00 | 74 | |
| 20260507121010 | 55 | 220 | 11.3 | 17.4 | 0.00 | 0.00 | 0.00 | 75 | |
| 20260507120509 | 55 | 230 | 9.6 | 13.9 | 0.00 | 0.00 | 0.00 | 75 | |
| 20260507120010 | 55 | 231 | 7.8 | 9.6 | 0.00 | 0.00 | 0.00 | 77 | |
| 20260507115516 | 54 | 241 | 11.3 | 13.9 | 0.00 | 0.00 | 0.00 | 77 | |
| 20260507115010 | 54 | 225 | 11.3 | 11.3 | 0.00 | 0.00 | 0.00 | 77 | |
| 20260507114510 | 54 | 231 | 11.3 | 15.6 | 0.00 | 0.00 | 0.00 | 77 | |
| 20260507114010 | 55 | 233 | 11.3 | 13.9 | 0.00 | 0.00 | 0.00 | 77 | |
| 20260507113510 | 55 | 221 | 9.6 | 11.3 | 0.00 | 0.00 | 0.00 | 78 | |
| 20260507113011 | 55 | 230 | 13.9 | 13.9 | 0.00 | 0.00 | 0.00 | 78 | |
| 20260507112511 | 54 | 228 | 11.3 | 13.9 | 0.00 | 0.00 | 0.00 | 79 | |
| 20260507112013 | 54 | 234 | 11.3 | 15.6 | 0.00 | 0.00 | 0.00 | 80 | |
| 20260507111511 | 54 | 219 | 9.6 | 9.6 | 0.00 | 0.00 | 0.00 | 80 | |
| 20260507111011 | 54 | 222 | 9.6 | 13.9 | 0.00 | 0.00 | 0.00 | 80 | |
| 20260507110510 | 54 | 217 | 9.6 | 11.3 | 0.00 | 0.00 | 0.00 | 81 | |
| 20260507110010 | 52 | 227 | 11.3 | 15.6 | 0.00 | 0.00 | 0.00 | 81 | |
| 20260507105518 | 52 | 232 | 11.3 | 13.9 | 0.00 | 0.00 | 0.00 | 81 | |
| 20260507105010 | 52 | 230 | 11.3 | 13.9 | 0.00 | 0.00 | 0.00 | 81 | |
| 20260507104510 | 52 | 231 | 13.9 | 15.6 | 0.00 | 0.00 | 0.00 | 82 | |
| 20260507104010 | 52 | 241 | 13.9 | 17.4 | 0.00 | 0.00 | 0.00 | 82 | |
| 20260507103511 | 52 | 243 | 15.6 | 17.4 | 0.00 | 0.00 | 0.00 | 82 | |
| 20260507103010 | 52 | 247 | 17.4 | 19.1 | 0.00 | 0.00 | 0.00 | 82 | |
| 20260507102511 | 52 | 242 | 17.4 | 19.1 | 0.00 | 0.00 | 0.00 | 81 | |
| 20260507102018 | 52 | 236 | 15.6 | 17.4 | 0.00 | 0.00 | 0.00 | 81 | |
| 20260507101511 | 52 | 261 | 15.6 | 19.1 | 0.00 | 0.00 | 0.00 | 82 | |
| 20260507101011 | 54 | 256 | 17.4 | 17.4 | 0.00 | 0.00 | 0.00 | 83 | |
| 20260507100509 | 52 | 239 | 11.3 | 15.6 | 0.00 | 0.00 | 0.00 | 83 | |
| 20260507100011 | 52 | 258 | 13.9 | 15.6 | 0.00 | 0.00 | 0.00 | 83 | |
| 20260507095510 | 52 | 245 | 11.3 | 13.9 | 0.00 | 0.00 | 0.00 | 84 | |
| 20260507095011 | 52 | 240 | 13.9 | 15.6 | 0.00 | 0.00 | 0.00 | 84 | |
| 20260507094505 | 52 | 233 | 15.6 | 17.4 | 0.00 | 0.00 | 0.00 | 84 | |
| 20260507094011 | 52 | 245 | 17.4 | 17.4 | 0.00 | 0.00 | 0.00 | 84 | |
| 20260507093510 | 52 | 223 | 17.4 | 19.1 | 0.00 | 0.00 | 0.00 | 83 | |
| 20260507093011 | 54 | 209 | 17.4 | 21.7 | 0.00 | 0.00 | 0.00 | 84 | |
| 20260507092511 | 54 | 197 | 7.8 | 9.6 | 0.00 | 0.00 | 0.00 | 86 | |
| 20260507092013 | 54 | 181 | 9.6 | 13.9 | 0.00 | 0.00 | 0.00 | 86 | |
| 20260507091510 | 54 | 203 | 13.9 | 17.4 | 0.00 | 0.00 | 0.00 | 87 | |
| 20260507091010 | 54 | 203 | 6.1 | 7.8 | 0.00 | 0.00 | 0.00 | 89 | |
| 20260507090511 | 52 | 249 | 11.3 | 13.9 | 0.00 | 0.00 | 0.00 | 89 | |
| 20260507090010 | 52 | 236 | 9.6 | 11.3 | 0.00 | 0.00 | 0.00 | 90 | |
| 20260507085510 | 52 | 244 | 11.3 | 13.9 | 0.00 | 0.00 | 0.00 | 90 | |
| 20260507085010 | 52 | 216 | 13.9 | 15.6 | 0.00 | 0.00 | 0.00 | 90 | |
| 20260507084510 | 52 | 200 | 9.6 | 13.9 | 0.00 | 0.00 | 0.00 | 91 | |
| 20260507084011 | 52 | 183 | 9.6 | 11.3 | 0.00 | 0.00 | 0.00 | 90 | |
| 20260507083511 | 52 | 174 | 9.6 | 11.3 | 0.00 | 0.00 | 0.00 | 91 | |
| 20260507083010 | 52 | 208 | 11.3 | 15.6 | 0.00 | 0.00 | 0.00 | 91 | |
| 20260507082511 | 52 | 224 | 11.3 | 11.3 | 0.00 | 0.00 | 0.00 | 91 | |
| 20260507082012 | 52 | 231 | 11.3 | 15.6 | 0.00 | 0.00 | 0.00 | 92 | |
| 20260507081511 | 50 | 258 | 13.9 | 17.4 | 0.00 | 0.00 | 0.00 | 92 | |
| 20260507081011 | 50 | 259 | 13.9 | 15.6 | 0.00 | 0.00 | 0.00 | 92 | |
| 20260507080509 | 50 | 245 | 15.6 | 17.4 | 0.00 | 0.00 | 0.00 | 93 | |
| 20260507080011 | 48 | 241 | 13.9 | 15.6 | 0.00 | 0.00 | 0.00 | 93 | |
| 20260507075510 | 48 | 233 | 13.9 | 15.6 | 0.00 | 0.00 | 0.00 | 92 | |
| 20260507075010 | 48 | 232 | 13.9 | 15.6 | 0.00 | 0.00 | 0.00 | 92 | |
| 20260507074510 | 48 | 236 | 15.6 | 15.6 | 0.00 | 0.00 | 0.00 | 92 | |
| 20260507074011 | 48 | 234 | 13.9 | 15.6 | 0.00 | 0.00 | 0.00 | 93 | |
| 20260507073510 | 48 | 236 | 11.3 | 11.3 | 0.00 | 0.00 | 0.00 | 92 | |
| 20260507073010 | 50 | 233 | 15.6 | 15.6 | 0.00 | 0.00 | 0.00 | 92 | |
| 20260507072510 | 50 | 239 | 13.9 | 17.4 | 0.00 | 0.00 | 0.00 | 93 | |
| 20260507072013 | 48 | 237 | 13.9 | 15.6 | 0.00 | 0.00 | 0.00 | 93 | |
| 20260507071503 | 48 | 218 | 11.3 | 13.9 | 0.00 | 0.00 | 0.00 | 93 | |
| 20260507071009 | 48 | 205 | 15.6 | 15.6 | 0.00 | 0.00 | 0.00 | 93 | |
| 20260507070517 | 50 | 215 | 11.3 | 13.9 | 0.00 | 0.00 | 0.00 | 93 | |
| 20260507070012 | 48 | 224 | 15.6 | 15.6 | 0.00 | 0.00 | 0.00 | 93 | |
| 20260507065511 | 48 | 231 | 15.6 | 17.4 | 0.00 | 0.00 | 0.00 | 93 | |
| 20260507065011 | 48 | 242 | 15.6 | 17.4 | 0.00 | 0.00 | 0.00 | 93 | |
| 20260507064518 | 48 | 249 | 17.4 | 19.1 | 0.00 | 0.00 | 0.00 | 93 | |
| 20260507064010 | 48 | 241 | 15.6 | 17.4 | 0.00 | 0.00 | 0.00 | 93 | |
| 20260507063515 | 48 | 239 | 15.6 | 17.4 | 0.00 | 0.00 | 0.00 | 93 | |
| 20260507063010 | 48 | 239 | 17.4 | 19.1 | 0.00 | 0.00 | 0.00 | 93 | |
| 20260507062510 | 50 | 245 | 17.4 | 21.7 | 0.00 | 0.00 | 0.00 | 93 | |
| 20260507062012 | 50 | 233 | 11.3 | 13.9 | 0.00 | 0.00 | 0.00 | 93 | |
| 20260507061518 | 50 | 229 | 11.3 | 15.6 | 0.00 | 0.00 | 0.00 | 93 | |
| 20260507061011 | 50 | 231 | 11.3 | 13.9 | 0.00 | 0.00 | 0.00 | 93 | |
| 20260507060510 | 50 | 232 | 11.3 | 13.9 | 0.00 | 0.00 | 0.00 | 93 | |
| 20260507060011 | 50 | 229 | 11.3 | 13.9 | 0.00 | 0.00 | 0.00 | 93 | |
| 20260507055515 | 50 | 237 | 11.3 | 13.9 | 0.00 | 0.00 | 0.00 | 93 | |
| 20260507055011 | 50 | 244 | 11.3 | 13.9 | 0.00 | 0.00 | 0.00 | 93 | |
| 20260507054510 | 48 | 245 | 13.9 | 13.9 | 0.00 | 0.00 | 0.00 | 93 | |
| 20260507054010 | 48 | 245 | 11.3 | 13.9 | 0.00 | 0.00 | 0.00 | 93 | |
| 20260507053511 | 48 | 248 | 9.6 | 11.3 | 0.00 | 0.00 | 0.00 | 93 | |
| 20260507053010 | 48 | 250 | 9.6 | 9.6 | 0.00 | 0.00 | 0.00 | 92 | |
| 20260507052511 | 48 | 244 | 9.6 | 11.3 | 0.00 | 0.00 | 0.00 | 92 | |
| 20260507052012 | 48 | 240 | 9.6 | 9.6 | 0.00 | 0.00 | 0.00 | 92 | |
| 20260507051511 | 48 | 253 | 7.8 | 9.6 | 0.00 | 0.00 | 0.00 | 92 | |
| 20260507051010 | 48 | 249 | 9.6 | 11.3 | 0.00 | 0.00 | 0.00 | 92 | |
| 20260507050510 | 48 | 244 | 9.6 | 11.3 | 0.00 | 0.00 | 0.00 | 92 | |
| 20260507050011 | 48 | 252 | 7.8 | 9.6 | 0.00 | 0.00 | 0.00 | 92 | |
| 20260507045510 | 48 | 235 | 9.6 | 11.3 | 0.00 | 0.00 | 0.00 | 92 | |
| 20260507045011 | 48 | 222 | 11.3 | 13.9 | 0.00 | 0.00 | 0.00 | 92 | |
| 20260507044518 | 50 | 226 | 11.3 | 13.9 | 0.00 | 0.00 | 0.00 | 92 | |
| 20260507044010 | 48 | 219 | 15.6 | 15.6 | 0.00 | 0.00 | 0.00 | 92 | |
| 20260507043511 | 48 | 219 | 13.9 | 15.6 | 0.00 | 0.00 | 0.00 | 92 | |
| 20260507043010 | 48 | 212 | 15.6 | 15.6 | 0.00 | 0.00 | 0.00 | 92 | |
| 20260507042510 | 48 | 206 | 15.6 | 15.6 | 0.00 | 0.00 | 0.00 | 91 | |
| 20260507042010 | 48 | 201 | 13.9 | 17.4 | 0.00 | 0.00 | 0.00 | 92 | |
| 20260507041516 | 48 | 199 | 11.3 | 15.6 | 0.00 | 0.00 | 0.00 | 91 | |
| 20260507041010 | 48 | 200 | 9.6 | 13.9 | 0.00 | 0.00 | 0.00 | 91 | |
| 20260507040511 | 48 | 196 | 9.6 | 11.3 | 0.00 | 0.00 | 0.00 | 91 | |
| 20260507040011 | 48 | 206 | 11.3 | 13.9 | 0.00 | 0.00 | 0.00 | 91 | |
| 20260507035510 | 48 | 203 | 11.3 | 13.9 | 0.00 | 0.00 | 0.00 | 91 | |
| 20260507035011 | 48 | 202 | 13.9 | 15.6 | 0.00 | 0.00 | 0.00 | 91 | |
| 20260507034510 | 48 | 201 | 13.9 | 15.6 | 0.00 | 0.00 | 0.00 | 90 | |
| 20260507034010 | 48 | 197 | 13.9 | 13.9 | 0.00 | 0.00 | 0.00 | 90 | |
| 20260507033511 | 48 | 192 | 9.6 | 13.9 | 0.00 | 0.00 | 0.00 | 90 | |
| 20260507033010 | 48 | 192 | 11.3 | 13.9 | 0.00 | 0.00 | 0.00 | 90 | |
| 20260507032510 | 50 | 204 | 15.6 | 17.4 | 0.00 | 0.00 | 0.00 | 90 | |
| 20260507032013 | 50 | 197 | 13.9 | 17.4 | 0.00 | 0.00 | 0.00 | 90 | |
| 20260507031510 | 50 | 207 | 15.6 | 17.4 | 0.00 | 0.00 | 0.00 | 91 | |
| 20260507031008 | 50 | 216 | 11.3 | 13.9 | 0.00 | 0.00 | 0.00 | 91 | |
| 20260507030510 | 50 | 214 | 11.3 | 13.9 | 0.00 | 0.00 | 0.00 | 91 | |
| 20260507030010 | 48 | 210 | 13.9 | 13.9 | 0.00 | 0.00 | 0.00 | 90 | |
| 20260507025510 | 48 | 204 | 13.9 | 15.6 | 0.00 | 0.00 | 0.00 | 90 | |
| 20260507025010 | 48 | 212 | 11.3 | 13.9 | 0.00 | 0.00 | 0.00 | 91 | |
| 20260507024511 | 50 | 216 | 11.3 | 13.9 | 0.00 | 0.00 | 0.00 | 90 | |
| 20260507024010 | 50 | 229 | 13.9 | 13.9 | 0.00 | 0.00 | 0.00 | 90 | |
| 20260507023510 | 50 | 233 | 13.9 | 13.9 | 0.00 | 0.00 | 0.00 | 90 | |
| 20260507023011 | 50 | 238 | 13.9 | 13.9 | 0.00 | 0.00 | 0.00 | 91 | |
| 20260507022510 | 50 | 242 | 13.9 | 13.9 | 0.00 | 0.00 | 0.00 | 91 | |
| 20260507022011 | 50 | 239 | 13.9 | 15.6 | 0.00 | 0.00 | 0.00 | 91 | |
| 20260507021511 | 50 | 227 | 13.9 | 13.9 | 0.00 | 0.00 | 0.00 | 91 | |
| 20260507021010 | 50 | 227 | 11.3 | 13.9 | 0.00 | 0.00 | 0.00 | 91 | |
| 20260507020518 | 50 | 220 | 13.9 | 13.9 | 0.00 | 0.00 | 0.00 | 91 | |
| 20260507020010 | 50 | 226 | 11.3 | 13.9 | 0.00 | 0.00 | 0.00 | 91 | |
| 20260507015510 | 50 | 230 | 11.3 | 13.9 | 0.00 | 0.00 | 0.00 | 91 | |
| 20260507015010 | 50 | 220 | 11.3 | 11.3 | 0.00 | 0.00 | 0.00 | 91 | |
| 20260507014510 | 50 | 223 | 11.3 | 13.9 | 0.00 | 0.00 | 0.00 | 91 | |
| 20260507014011 | 50 | 216 | 11.3 | 11.3 | 0.00 | 0.00 | 0.00 | 91 | |
| 20260507013510 | 50 | 226 | 11.3 | 13.9 | 0.00 | 0.00 | 0.00 | 90 | |
| 20260507013012 | 50 | 232 | 11.3 | 13.9 | 0.00 | 0.00 | 0.00 | 90 | |
| 20260507012511 | 50 | 225 | 13.9 | 15.6 | 0.00 | 0.00 | 0.00 | 90 | |
| 20260507012004 | 50 | 228 | 13.9 | 15.6 | 0.00 | 0.00 | 0.00 | 90 | |
| 20260507011510 | 50 | 227 | 11.3 | 13.9 | 0.00 | 0.00 | 0.00 | 90 | |
| 20260507011011 | 50 | 231 | 11.3 | 11.3 | 0.00 | 0.00 | 0.00 | 90 | |
| 20260507010510 | 50 | 230 | 11.3 | 11.3 | 0.00 | 0.00 | 0.00 | 89 | |
| 20260507010011 | 50 | 223 | 9.6 | 11.3 | 0.00 | 0.00 | 0.00 | 90 | |
| 20260507005509 | 50 | 228 | 11.3 | 13.9 | 0.00 | 0.00 | 0.00 | 90 | |
| 20260507005010 | 50 | 236 | 13.9 | 13.9 | 0.00 | 0.00 | 0.00 | 90 | |
| 20260507004010 | 50 | 218 | 11.3 | 13.9 | 0.00 | 0.00 | 0.00 | 89 | |
| 20260507003510 | 50 | 210 | 13.9 | 15.6 | 0.00 | 0.00 | 0.00 | 88 | |
| 20260507003010 | 50 | 230 | 11.3 | 13.9 | 0.00 | 0.00 | 0.00 | 88 | |
| 20260507002511 | 52 | 264 | 13.9 | 13.9 | 0.00 | 0.00 | 0.00 | 89 | |
| 20260507002012 | 52 | 259 | 11.3 | 11.3 | 0.00 | 0.00 | 0.00 | 89 | |
| 20260507001511 | 52 | 256 | 11.3 | 11.3 | 0.00 | 0.00 | 0.00 | 89 | |
| 20260507001010 | 50 | 265 | 11.3 | 11.3 | 0.00 | 0.00 | 0.00 | 89 | |
| 20260507000511 | 50 | 254 | 9.6 | 11.3 | 0.00 | 0.00 | 0.00 | 89 | |
| 20260507000011 | 50 | 255 | 11.3 | 11.3 | 0.00 | 0.00 | 0.00 | 89 | |
| 20260506235511 | 50 | 248 | 11.3 | 13.9 | 0.00 | 0.00 | 0.00 | 89 | |
| 20260506235010 | 50 | 231 | 9.6 | 11.3 | 0.00 | 0.00 | 0.00 | 88 | |
| 20260506234510 | 50 | 213 | 9.6 | 9.6 | 0.00 | 0.00 | 0.00 | 88 | |
| 20260506234011 | 50 | 240 | 9.6 | 9.6 | 0.00 | 0.00 | 0.00 | 88 | |
| 20260506233510 | 50 | 242 | 11.3 | 11.3 | 0.00 | 0.00 | 0.00 | 88 | |
| 20260506233010 | 50 | 237 | 9.6 | 11.3 | 0.00 | 0.00 | 0.00 | 88 | |
| 20260506232514 | 50 | 226 | 9.6 | 11.3 | 0.00 | 0.00 | 0.00 | 88 | |
| 20260506232012 | 50 | 207 | 7.8 | 7.8 | 0.00 | 0.00 | 0.00 | 88 | |
| 20260506231510 | 50 | 209 | 9.6 | 11.3 | 0.00 | 0.00 | 0.00 | 88 | |
| 20260506231010 | 50 | 206 | 9.6 | 11.3 | 0.00 | 0.00 | 0.00 | 87 | |
| 20260506230511 | 50 | 205 | 9.6 | 13.9 | 0.00 | 0.00 | 0.00 | 88 | |
| 20260506230010 | 50 | 218 | 9.6 | 11.3 | 0.00 | 0.00 | 0.00 | 88 | |
| 20260506225510 | 50 | 216 | 9.6 | 13.9 | 0.00 | 0.00 | 0.00 | 88 | |
| 20260506225010 | 50 | 234 | 9.6 | 11.3 | 0.00 | 0.00 | 0.00 | 87 | |
| 20260506224510 | 50 | 254 | 11.3 | 11.3 | 0.00 | 0.00 | 0.00 | 87 | |
| 20260506224011 | 50 | 256 | 9.6 | 9.6 | 0.00 | 0.00 | 0.00 | 86 | |
| 20260506223511 | 50 | 262 | 13.9 | 13.9 | 0.00 | 0.00 | 0.00 | 86 | |
| 20260506223010 | 50 | 231 | 9.6 | 9.6 | 0.00 | 0.00 | 0.00 | 85 | |
| 20260506222513 | 50 | 230 | 9.6 | 9.6 | 0.00 | 0.00 | 0.00 | 85 | |
| 20260506222016 | 52 | 224 | 9.6 | 11.3 | 0.00 | 0.00 | 0.00 | 85 | |
| 20260506221510 | 52 | 207 | 11.3 | 11.3 | 0.00 | 0.00 | 0.00 | 85 | |
| 20260506221010 | 52 | 211 | 13.9 | 15.6 | 0.00 | 0.00 | 0.00 | 83 | |
| 20260506220511 | 52 | 203 | 9.6 | 9.6 | 0.00 | 0.00 | 0.00 | 84 | |
| 20260506220011 | 52 | 204 | 13.9 | 15.6 | 0.00 | 0.00 | 0.00 | 84 | |
| 20260506215510 | 52 | 204 | 17.4 | 17.4 | 0.00 | 0.00 | 0.00 | 85 | |
| 20260506215010 | 52 | 203 | 15.6 | 15.6 | 0.00 | 0.00 | 0.00 | 85 | |
| 20260506214510 | 52 | 207 | 13.9 | 15.6 | 0.00 | 0.00 | 0.00 | 86 | |
| 20260506214011 | 50 | 230 | 11.3 | 15.6 | 0.00 | 0.00 | 0.00 | 85 | |
| 20260506213510 | 50 | 229 | 13.9 | 15.6 | 0.00 | 0.00 | 0.00 | 84 | |
| 20260506213011 | 52 | 251 | 13.9 | 15.6 | 0.00 | 0.00 | 0.00 | 84 | |
| 20260506212510 | 52 | 225 | 11.3 | 15.6 | 0.00 | 0.00 | 0.00 | 84 | |
| 20260506212020 | 52 | 233 | 15.6 | 17.4 | 0.00 | 0.00 | 0.00 | 83 | |
| 20260506211511 | 52 | 233 | 15.6 | 17.4 | 0.00 | 0.00 | 0.00 | 82 | |
| 20260506211010 | 52 | 218 | 13.9 | 15.6 | 0.00 | 0.00 | 0.00 | 81 | |
| 20260506210510 | 54 | 219 | 13.9 | 13.9 | 0.00 | 0.00 | 0.00 | 78 | |
| 20260506210010 | 55 | 213 | 7.8 | 7.8 | 0.00 | 0.00 | 0.00 | 75 | |
| 20260506205510 | 55 | 201 | 3.5 | 6.1 | 0.00 | 0.00 | 0.00 | 74 | |
| 20260506204511 | 55 | 138 | 1.7 | 1.7 | 0.00 | 0.00 | 0.00 | 74 | |
| 20260506203510 | 55 | 138 | 0.0 | 1.7 | 0.00 | 0.00 | 0.00 | 73 | |
| 20260506203011 | 55 | 117 | 3.5 | 3.5 | 0.00 | 0.00 | 0.00 | 73 | |
| 20260506202503 | 55 | 117 | 3.5 | 3.5 | 0.00 | 0.00 | 0.00 | 74 | |
| 20260506202012 | 55 | 94 | 3.5 | 3.5 | 0.00 | 0.00 | 0.00 | 74 | |
| 20260506201517 | 55 | 112 | 3.5 | 6.1 | 0.00 | 0.00 | 0.00 | 75 | |
| 20260506201010 | 55 | 95 | 3.5 | 6.1 | 0.00 | 0.00 | 0.00 | 75 | |
| 20260506200511 | 55 | 104 | 6.1 | 6.1 | 0.00 | 0.00 | 0.00 | 74 | |
| 20260506200011 | 55 | 85 | 7.8 | 7.8 | 0.00 | 0.00 | 0.00 | 74 | |
| 20260506195509 | 55 | 101 | 6.1 | 6.1 | 0.00 | 0.00 | 0.00 | 74 | |
| 20260506195018 | 55 | 110 | 6.1 | 6.1 | 0.00 | 0.00 | 0.00 | 73 | |
| 20260506194510 | 55 | 118 | 7.8 | 7.8 | 0.00 | 0.00 | 0.00 | 73 | |
| 20260506194011 | 55 | 123 | 7.8 | 7.8 | 0.00 | 0.00 | 0.00 | 72 | |
| 20260506193511 | 55 | 129 | 9.6 | 11.3 | 0.00 | 0.00 | 0.00 | 71 | |
| 20260506193011 | 55 | 128 | 9.6 | 9.6 | 0.00 | 0.00 | 0.00 | 68 | |
| 20260506192510 | 57 | 135 | 9.6 | 9.6 | 0.00 | 0.00 | 0.00 | 63 | |
| 20260506192011 | 57 | 122 | 6.1 | 6.1 | 0.00 | 0.00 | 0.00 | 61 | |
| 20260506191510 | 59 | 72 | 6.1 | 6.1 | 0.00 | 0.00 | 0.00 | 60 | |
| 20260506191010 | 59 | 44 | 3.5 | 6.1 | 0.00 | 0.00 | 0.00 | 61 | |
| 20260506190510 | 59 | 27 | 6.1 | 7.8 | 0.00 | 0.00 | 0.00 | 62 | |
| 20260506190011 | 57 | 22 | 7.8 | 7.8 | 0.00 | 0.00 | 0.00 | 65 | |
| 20260506185515 | 57 | 26 | 6.1 | 6.1 | 0.00 | 0.00 | 0.00 | 65 | |
| 20260506185011 | 57 | 1 | 6.1 | 6.1 | 0.00 | 0.00 | 0.00 | 65 | |
| 20260506184510 | 57 | 1 | 7.8 | 7.8 | 0.00 | 0.00 | 0.00 | 64 | |
| 20260506184011 | 57 | 7 | 9.6 | 9.6 | 0.00 | 0.00 | 0.00 | 65 | |
| 20260506183510 | 57 | 25 | 9.6 | 11.3 | 0.00 | 0.00 | 0.00 | 65 | |
| 20260506183011 | 57 | 63 | 6.1 | 6.1 | 0.00 | 0.00 | 0.00 | 66 | |
| 20260506182510 | 57 | 190 | 3.5 | 3.5 | 0.00 | 0.00 | 0.00 | 66 | |
| 20260506182012 | 57 | 197 | 11.3 | 13.9 | 0.00 | 0.00 | 0.00 | 67 | |
| 20260506181510 | 55 | 189 | 13.9 | 17.4 | 0.00 | 0.00 | 0.00 | 66 | |
| 20260506181009 | 59 | 207 | 9.6 | 13.9 | 0.00 | 0.00 | 0.00 | 62 | |
| 20260506180510 | 59 | 255 | 7.8 | 9.6 | 0.00 | 0.00 | 0.00 | 62 | |
| 20260506180010 | 59 | 277 | 6.1 | 7.8 | 0.00 | 0.00 | 0.00 | 62 | |
| 20260506175511 | 59 | 302 | 7.8 | 7.8 | 0.00 | 0.00 | 0.00 | 62 | |
| 20260506175011 | 59 | 290 | 9.6 | 11.3 | 0.00 | 0.00 | 0.00 | 62 | |
| 20260506174517 | 59 | 296 | 7.8 | 7.8 | 0.00 | 0.00 | 0.00 | 61 | |
| 20260506174010 | 59 | 291 | 7.8 | 9.6 | 0.00 | 0.00 | 0.00 | 60 | |
| 20260506173510 | 61 | 297 | 6.1 | 7.8 | 0.00 | 0.00 | 0.00 | 57 | |
| 20260506173012 | 61 | 299 | 6.1 | 6.1 | 0.00 | 0.00 | 0.00 | 57 | |
| 20260506171012 | 61 | 317 | 3.5 | 3.5 | 0.00 | 0.00 | 0.00 | 56 |